• Join FlightAware (Why Join?)
  • Login
  • US Flag 
09:42PM EST


 

Airport Tracker/Info


-or-


 

Live Flight TrackerFlight Track Log ✈ SWA259 ✈ 04-Jul-2013 ✈ KMDW - KPHX

Flight Track Log - Related Links

Times and Time Zones

All times are in EDT time to prevent confusion due to time zone crossing. See the SWA259 flight status page for this flight to view local times or setup timezone preferences in your user account.

Time Position Orientation Groundspeed Altitude Reporting Facility
EDT Latitude Longitude Course Direction KTS MPH feet Rate Location/Type
09:26AM 41.7710 -87.7740 244° Southwest 156 180 1,800  Level FlightAware
09:27AM 41.7610 -87.8020 244° Southwest 197 227 2,400 1,560 Climbing FlightAware
09:27AM 41.7580 -87.8190 257° West 211 243 2,900 2,400 Climbing FlightAware
09:27AM 41.7570 -87.8410 267° West 220 253 3,600 2,280 Climbing FlightAware
09:28AM 41.7570 -87.8740 270° West 242 278 4,400 2,640 Climbing FlightAware
09:28AM 41.7580 -87.9260 271° West 255 293 6,100 3,060 Climbing FlightAware
09:29AM 41.7630 -87.9650 280° West 265 305 7,400 3,120 Climbing FlightAware
09:29AM 41.7690 -88.0160 279° West 271 312 9,000 3,060 Climbing FlightAware
09:29AM 41.7700 -88.0260 278° West 272 313 9,300 2,940 Climbing FlightAware
09:30AM 41.7800 -88.1040 280° West 283 326 11,600 1,740 Climbing FlightAware
09:31AM 41.7860 -88.1710 277° West 287 330 11,800 1,320 Climbing FlightAware
09:33AM 41.7820 -88.4790 269° West 381 438 15,800 1,740 Climbing FlightAware
09:34AM 41.7720 -88.5690 262° West 388 447 17,200 2,280 Climbing FlightAware
09:35AM 41.7520 -88.6670 255° West 394 453 18,900 2,220 Climbing FlightAware
09:35AM 41.7370 -88.7370 254° West 400 460 19,900 2,100 Climbing FlightAware
09:35AM 41.7250 -88.7950 255° West 405 466 20,800 1,620 Climbing FlightAware
09:39AM 41.6020 -89.2390 250° West 441 507 25,700 1,560 Climbing FlightAware
09:39AM 41.5660 -89.3680 250° West 448 516 26,900 1,380 Climbing FlightAware
09:40AM 41.5360 -89.4750 249° West 452 520 27,800 1,500 Climbing FlightAware
09:41AM 41.5080 -89.5730 249° West 447 514 28,900 1,920 Climbing FlightAware
09:41AM 41.4760 -89.6870 249° West 433 498 30,500 2,040 Climbing FlightAware
09:42AM 41.4450 -89.7950 249° West 424 488 31,900 1,500 Climbing FlightAware
09:43AM 41.4160 -89.8990 250° West 424 488 32,700 1,260 Climbing FlightAware
09:43AM 41.3890 -89.9930 249° West 418 481 33,700 1,860 Climbing FlightAware
09:44AM 41.3590 -90.0960 249° West 394 453 35,300 1,620 Climbing FlightAware
09:45AM 41.3340 -90.1850 250° West 388 447 36,000 480 Climbing FlightAware
09:46AM 41.3050 -90.2820 248° West 393 452 36,000  Level FlightAware
09:46AM 41.2770 -90.3800 249° West 397 457 36,000  Level FlightAware
09:47AM 41.2490 -90.4750 249° West 398 458 36,000  Level FlightAware
09:48AM 41.2230 -90.5660 249° West 400 460 36,000  Level FlightAware
09:48AM 41.1930 -90.6670 248° West 402 463 36,000  Level FlightAware
09:49AM 41.1650 -90.7620 249° West 406 467 36,000  Level FlightAware
09:50AM 41.1370 -90.8580 249° West 408 470 36,000  Level FlightAware
09:50AM 41.1080 -90.9530 248° West 409 471 36,000  Level FlightAware
09:51AM 41.0810 -91.0440 249° West 411 473 36,000  Level FlightAware
09:52AM 41.0530 -91.1370 248° West 412 474 36,000  Level FlightAware
09:52AM 41.0250 -91.2310 248° West 415 478 36,000  Level FlightAware
09:53AM 40.9920 -91.3400 248° West 418 481 36,000  Level FlightAware
09:54AM 40.9690 -91.4180 249° West 419 482 36,000  Level FlightAware
09:55AM 40.9370 -91.5220 248° West 422 486 36,000  Level FlightAware
09:55AM 40.8960 -91.6560 248° West 425 489 36,000  Level FlightAware
09:56AM 40.8720 -91.7350 248° West 427 491 36,000  Level FlightAware
09:57AM 40.8440 -91.8250 248° West 428 493 36,000  Level FlightAware
09:58AM 40.8010 -91.9660 248° West 434 499 36,000  Level FlightAware
09:58AM 40.7670 -92.0690 246° West 434 499 36,000  Level FlightAware
09:59AM 40.7330 -92.1820 248° West 442 509 36,000  Level FlightAware
10:00AM 40.7050 -92.2700 247° West 442 509 36,000  Level FlightAware
10:00AM 40.6740 -92.3720 248° West 445 512 36,000  Level FlightAware
10:01AM 40.6390 -92.4820 247° West 447 514 36,000  Level FlightAware
10:02AM 40.6050 -92.5910 248° West 449 517 36,000  Level FlightAware
10:02AM 40.5730 -92.6920 247° West 450 518 36,000  Level FlightAware
10:03AM 40.5370 -92.8040 247° West 452 520 36,000  Level FlightAware
10:04AM 40.5050 -92.9050 247° West 453 521 36,000  Level FlightAware
10:04AM 40.4770 -92.9930 247° West 456 525 36,000  Level FlightAware
10:05AM 40.4360 -93.1200 247° West 457 526 36,000  Level FlightAware
10:06AM 40.4030 -93.2210 247° West 459 528 36,000  Level FlightAware
10:06AM 40.3730 -93.3150 247° West 460 529 36,000  Level FlightAware
10:07AM 40.3360 -93.4260 246° West 462 532 36,000  Level FlightAware
10:08AM 40.3060 -93.5190 247° West 463 533 36,000  Level FlightAware
10:08AM 40.2720 -93.6230 247° West 465 535 36,000  Level FlightAware
10:09AM 40.2650 -93.6440 246° West 465 535 36,000  Level FlightAware
10:09AM 40.2450 -93.7030 246° West 465 535 36,000  Level FlightAware
10:11AM 40.1540 -94.0140 249° West 465 535 36,000  Level FlightAware
10:12AM 40.1150 -94.1690 252° West 465 535 36,000  Level FlightAware
10:13AM 40.0860 -94.2800 251° West 466 536 36,000  Level FlightAware
10:13AM 40.0630 -94.3690 251° West 465 535 36,000  Level FlightAware
10:14AM 40.0330 -94.4820 251° West 466 536 36,000  Level FlightAware
10:15AM 39.9940 -94.6280 251° West 468 539 36,000  Level FlightAware
10:15AM 39.9690 -94.7250 251° West 469 540 36,000  Level FlightAware
10:16AM 39.9370 -94.8460 251° West 470 541 36,000  Level FlightAware
10:17AM 39.9080 -94.9550 251° West 471 542 36,000  Level FlightAware
10:18AM 39.8780 -95.0680 251° West 472 543 36,000  Level FlightAware
10:18AM 39.8480 -95.1780 250° West 472 543 36,000  Level FlightAware
10:19AM 39.8170 -95.2950 251° West 472 543 36,000  Level FlightAware
10:20AM 39.7880 -95.4000 250° West 471 542 36,000  Level FlightAware
10:20AM 39.7620 -95.4960 251° West 472 543 36,000  Level FlightAware
10:21AM 39.7310 -95.6080 250° West 472 543 36,000  Level FlightAware
10:22AM 39.7010 -95.7170 250° West 471 542 36,000  Level FlightAware
10:22AM 39.6690 -95.8330 250° West 472 543 36,000  Level FlightAware
10:23AM 39.6360 -95.9500 250° West 473 544 36,000  Level FlightAware
10:24AM 39.5760 -96.1670 250° West 474 545 36,000  Level FlightAware
10:25AM 39.5510 -96.2560 250° West 474 545 36,000  Level FlightAware
10:26AM 39.5160 -96.3780 250° West 474 545 36,000  Level FlightAware
10:26AM 39.4860 -96.4840 250° West 474 545 36,000  Level FlightAware
10:27AM 39.4590 -96.5800 250° West 475 547 36,000  Level FlightAware
10:28AM 39.4220 -96.7120 250° West 474 545 36,000  Level FlightAware
10:29AM 39.3860 -96.8350 249° West 475 547 36,000  Level FlightAware
10:29AM 39.3510 -96.9570 250° West 476 548 36,000  Level FlightAware
10:30AM 39.3260 -97.0430 249° West 477 549 36,000  Level FlightAware
10:31AM 39.2860 -97.1790 249° West 478 550 36,000  Level FlightAware
10:31AM 39.2560 -97.2830 250° West 480 552 36,000  Level FlightAware
10:32AM 39.2290 -97.3720 249° West 481 554 36,000  Level FlightAware
10:33AM 39.1940 -97.4930 250° West 483 556 36,000  Level FlightAware
10:33AM 39.1590 -97.6130 249° West 483 556 36,000  Level FlightAware
10:34AM 39.1340 -97.6960 249° West 482 555 36,000  Level FlightAware
10:35AM 39.0990 -97.8140 249° West 484 557 36,000  Level FlightAware
10:35AM 39.0670 -97.9210 249° West 486 559 36,000  Level FlightAware
10:36AM 39.0330 -98.0320 249° West 488 562 36,000  Level FlightAware
10:37AM 38.9980 -98.1490 249° West 488 562 36,000  Level FlightAware
10:37AM 38.9650 -98.2580 249° West 489 563 36,000  Level FlightAware
10:38AM 38.9290 -98.3760 249° West 489 563 36,000  Level FlightAware
10:39AM 38.8960 -98.4840 249° West 489 563 36,000  Level FlightAware
10:40AM 38.8560 -98.6140 248° West 490 564 36,000 180 Level FlightAware
10:40AM 38.8140 -98.7290 245° Southwest 496 571 36,300 240 Climbing FlightAware
10:42AM 38.7510 -98.9110 246° West 498 573 36,500 60 Climbing FlightAware
10:42AM 38.7220 -98.9960 246° West 498 573 36,500  Level FlightAware
10:43AM 38.6840 -99.1040 246° West 498 573 36,500  Level FlightAware
10:44AM 38.6550 -99.1860 246° West 498 573 36,500  Level FlightAware
10:45AM 38.5850 -99.3880 246° West 498 573 36,500  Level FlightAware
10:46AM 38.5570 -99.4700 246° West 498 573 36,500 900 Level FlightAware
10:47AM 38.4610 -99.7450 246° West 496 571 38,000 960 Climbing FlightAware
10:47AM 38.4400 -99.8010 244° Southwest 496 571 38,000  Level FlightAware
10:48AM 38.4090 -99.8870 245° Southwest 496 571 38,000  Level FlightAware
10:48AM 38.3790 -99.9680 245° Southwest 496 571 38,000  Level FlightAware
10:49AM 38.3400 -100.0770 246° West 496 571 38,000  Level FlightAware
10:50AM 38.3100 -100.1580 245° Southwest 496 571 38,000  Level FlightAware
10:51AM 38.2600 -100.2950 245° Southwest 496 571 38,000  Level FlightAware
10:51AM 38.2290 -100.3780 245° Southwest 496 571 38,000  Level FlightAware
10:52AM 38.1900 -100.4860 245° Southwest 496 571 38,000  Level FlightAware
10:53AM 38.1600 -100.5670 245° Southwest 496 571 38,000  Level FlightAware
10:54AM 38.1200 -100.6750 245° Southwest 496 571 38,000  Level FlightAware
10:54AM 38.0910 -100.7560 246° West 496 571 38,000  Level FlightAware
10:55AM 38.0510 -100.8640 245° Southwest 496 571 38,000  Level FlightAware
10:56AM 38.0210 -100.9470 245° Southwest 496 571 38,000  Level FlightAware
10:56AM 37.9303 -101.2139 245° Southwest 483 556 38,000  Level Denver Center
10:57AM 37.8939 -101.3114 245° Southwest 483 556 38,000  Level Kansas City Center
10:58AM 37.8392 -101.4569 245° Southwest 482 555 38,000  Level Kansas City Center
10:59AM 37.7761 -101.6258 245° Southwest 479 551 38,000  Level Kansas City Center
11:00AM 37.7222 -101.7703 245° Southwest 477 549 38,000  Level Kansas City Center
11:01AM 37.6581 -101.9383 244° Southwest 477 549 38,000  Level Kansas City Center
11:02AM 37.6022 -102.0836 244° Southwest 480 552 38,000  Level Kansas City Center
11:03AM 37.5386 -102.2531 245° Southwest 480 552 38,000  Level Kansas City Center
11:04AM 37.4822 -102.3975 244° Southwest 481 554 38,000  Level Kansas City Center
11:05AM 37.4264 -102.5422 244° Southwest 481 554 38,000  Level Kansas City Center
11:06AM 37.3600 -102.7122 244° Southwest 484 557 38,000  Level Kansas City Center
11:07AM 37.3039 -102.8572 244° Southwest 484 557 38,000  Level Kansas City Center
11:08AM 37.2378 -103.0250 244° Southwest 481 554 38,000  Level Kansas City Center
11:09AM 37.1725 -103.1978 245° Southwest 479 551 38,000  Level Albuquerque Center
11:10AM 37.1142 -103.3414 243° Southwest 480 552 38,000  Level Albuquerque Center
11:11AM 37.0475 -103.5097 244° Southwest 480 552 38,000  Level Albuquerque Center
11:12AM 36.9906 -103.6528 244° Southwest 478 550 38,000  Level Albuquerque Center
11:13AM 36.9233 -103.8208 243° Southwest 480 552 38,000  Level Albuquerque Center
11:14AM 36.8653 -103.9639 243° Southwest 481 554 38,000  Level Albuquerque Center
11:15AM 36.8075 -104.1058 243° Southwest 478 550 38,000  Level Albuquerque Center
11:17AM 36.7400 -104.2717 243° Southwest 478 550 38,000  Level Albuquerque Center
11:18AM 36.6742 -104.4311 243° Southwest 477 549 38,000  Level Albuquerque Center
11:19AM 36.6131 -104.5781 243° Southwest 476 548 38,000  Level Albuquerque Center
11:20AM 36.5528 -104.7244 243° Southwest 474 545 38,000  Level Albuquerque Center
11:21AM 36.4919 -104.8708 243° Southwest 473 544 38,000  Level Albuquerque Center
11:22AM 36.4417 -105.0192 247° West 467 537 38,000  Level Albuquerque Center
11:27AM 36.1720 -105.8190 247° West 466 536 38,000  Level FlightAware
11:28AM 36.1390 -105.9160 247° West 466 536 38,000  Level FlightAware
11:28AM 36.0990 -106.0310 247° West 465 535 38,000  Level FlightAware
11:29AM 36.0650 -106.1280 247° West 465 535 38,000  Level FlightAware
11:30AM 36.0100 -106.2870 247° West 467 537 38,000  Level FlightAware
11:31AM 35.9780 -106.3810 247° West 468 539 38,000  Level FlightAware
11:31AM 35.9440 -106.4780 247° West 467 537 38,000  Level FlightAware
11:32AM 35.9090 -106.5770 246° West 466 536 38,000  Level FlightAware
11:33AM 35.8740 -106.6760 246° West 465 535 38,000  Level FlightAware
11:34AM 35.8370 -106.7820 247° West 467 537 38,000  Level FlightAware
11:34AM 35.7990 -106.8880 246° West 467 537 38,000  Level FlightAware
11:35AM 35.7640 -106.9860 246° West 469 540 38,000  Level FlightAware
11:36AM 35.7290 -107.0850 246° West 469 540 38,000  Level FlightAware
11:36AM 35.6980 -107.1730 247° West 469 540 38,000  Level FlightAware
11:37AM 35.6630 -107.2690 246° West 469 540 38,000  Level FlightAware
11:38AM 35.6230 -107.3820 246° West 471 542 38,000  Level FlightAware
11:38AM 35.5930 -107.4630 246° West 471 542 38,000  Level FlightAware
11:39AM 35.5540 -107.5730 246° West 470 541 38,000  Level FlightAware
11:40AM 35.5190 -107.6690 246° West 470 541 38,000  Level FlightAware
11:40AM 35.4850 -107.7610 246° West 471 542 38,000  Level FlightAware
11:41AM 35.4500 -107.8590 246° West 472 543 38,000  Level FlightAware
11:42AM 35.4150 -107.9510 245° Southwest 472 543 38,000  Level FlightAware
11:42AM 35.3830 -108.0410 246° West 471 542 38,000  Level FlightAware
11:43AM 35.3390 -108.1570 245° Southwest 471 542 38,000  Level FlightAware
11:44AM 35.3130 -108.2270 246° West 471 542 38,000  Level FlightAware
11:44AM 35.2730 -108.3300 245° Southwest 471 542 38,000  Level FlightAware
11:45AM 35.2410 -108.4160 246° West 471 542 38,000  Level FlightAware
11:46AM 35.2120 -108.4900 244° Southwest 471 542 38,000  Level FlightAware
11:47AM 35.1740 -108.5910 245° Southwest 471 542 38,000  Level FlightAware
11:47AM 35.1090 -108.7750 247° West 473 544 38,000  Level FlightAware
11:48AM 35.0730 -108.8720 246° West 472 543 38,000 -180 Level FlightAware
11:48AM 35.0390 -108.9610 245° Southwest 473 544 37,800 -720 Descending FlightAware
11:49AM 35.0020 -109.0600 245° Southwest 476 548 37,100 -1,020 Descending FlightAware
11:50AM 34.9610 -109.1680 245° Southwest 477 549 36,400 -780 Descending FlightAware
11:51AM 34.9240 -109.2680 246° West 477 549 36,000 -300 Descending FlightAware
11:51AM 34.8840 -109.3800 246° West 477 549 36,000  Level FlightAware
11:52AM 34.8480 -109.4790 246° West 474 545 36,000  Level FlightAware
11:53AM 34.8090 -109.5840 246° West 471 542 36,000  Level FlightAware
11:53AM 34.7730 -109.6810 246° West 470 541 36,000  Level FlightAware
11:54AM 34.7340 -109.7870 246° West 468 539 36,000 -360 Level FlightAware
11:55AM 34.6980 -109.8840 246° West 468 539 35,500 -480 Descending FlightAware
11:56AM 34.6530 -110.0000 245° Southwest 468 539 35,300 -960 Descending FlightAware
11:56AM 34.6090 -110.1230 247° West 472 543 33,900 -1,560 Descending FlightAware
11:57AM 34.5830 -110.1910 245° Southwest 469 540 33,500 -1,020 Descending FlightAware
11:58AM 34.5420 -110.3000 245° Southwest 462 532 32,700 -1,080 Descending FlightAware
11:58AM 34.5060 -110.3960 246° West 454 522 32,000 -1,200 Descending FlightAware
11:59AM 34.4720 -110.4850 245° Southwest 447 514 31,100 -1,800 Descending FlightAware
12:00PM 34.4320 -110.5930 246° West 442 509 29,500 -2,040 Descending FlightAware
12:00PM 34.4000 -110.6770 245° Southwest 447 514 28,200 -1,860 Descending FlightAware
12:01PM 34.3570 -110.7820 244° Southwest 445 512 26,900 -1,980 Descending FlightAware
12:02PM 34.3060 -110.8570 231° Southwest 441 507 25,400 -2,220 Descending FlightAware
12:03PM 34.2480 -110.9330 227° Southwest 434 499 23,900 -2,220 Descending FlightAware
12:03PM 34.1920 -111.0050 227° Southwest 425 489 22,400 -2,160 Descending FlightAware
12:04PM 34.1340 -111.0800 227° Southwest 418 481 20,900 -2,160 Descending FlightAware
12:05PM 34.0760 -111.1540 227° Southwest 411 473 19,300 -2,220 Descending FlightAware
12:05PM 34.0220 -111.2230 227° Southwest 403 464 17,800 -2,160 Descending FlightAware
12:06PM 33.9770 -111.2810 227° Southwest 395 455 16,600 -1,740 Descending FlightAware
12:07PM 33.9250 -111.3470 226° Southwest 372 428 15,600 -1,020 Descending FlightAware
12:07PM 33.8820 -111.4030 227° Southwest 339 390 15,300 -1,020 Descending FlightAware
12:08PM 33.8440 -111.4730 237° Southwest 332 382 14,200 -1,620 Descending FlightAware
12:09PM 33.8110 -111.5370 238° Southwest 332 382 13,000 -1,740 Descending FlightAware
12:10PM 33.7760 -111.6020 237° Southwest 327 376 11,900 -1,680 Descending FlightAware
12:10PM 33.7430 -111.6660 238° Southwest 321 369 10,700 -1,380 Descending FlightAware
12:11PM 33.7150 -111.7200 238° Southwest 307 353 10,100 -540 Descending FlightAware
12:11PM 33.6920 -111.7610 236° Southwest 283 326 10,100 -300 Level FlightAware
12:12PM 33.6540 -111.8310 237° Southwest 278 320 9,700 -540 Descending FlightAware
12:13PM 33.6370 -111.8610 236° Southwest 267 307 9,500 -480 Descending FlightAware
12:13PM 33.6280 -111.8790 239° Southwest 268 308 9,400 -660 Descending FlightAware
12:13PM 33.6110 -111.9090 236° Southwest 258 297 9,100 -360 Descending FlightAware
12:14PM 33.5940 -111.9420 238° Southwest 241 277 9,100 -360 Level FlightAware
12:14PM 33.5770 -111.9740 237° Southwest 234 269 8,800 -840 Descending FlightAware
12:15PM 33.5660 -111.9970 240° Southwest 234 269 8,400 -1,020 Descending FlightAware
12:15PM 33.5460 -112.0340 237° Southwest 237 273 7,700 -1,140 Descending FlightAware
12:16PM 33.5300 -112.0650 238° Southwest 240 276 7,100 -840 Descending FlightAware
12:16PM 33.5250 -112.0870 255° West 229 264 7,100 -180 Level FlightAware
12:16PM 33.5250 -112.1280 270° West 188 216 7,000 -540 Descending FlightAware
12:17PM 33.5250 -112.1480 270° West 183 211 6,700 -1,140 Descending FlightAware
12:17PM 33.5090 -112.1730 232° Southwest 176 203 6,000 -1,320 Descending FlightAware
12:18PM 33.4880 -112.1660 164° South 180 207 5,400 -1,200 Descending FlightAware
12:18PM 33.4700 -112.1590 162° South 152 175 5,000 -1,740 Descending FlightAware
12:19PM 33.4510 -112.1500 158° South 168 193 3,900 -2,280 Descending FlightAware
12:19PM 33.4450 -112.1420 132° Southeast 166 191 3,500 -1,860 Descending FlightAware
12:19PM 33.4420 -112.1300 107° East 161 185 3,100 -1,680 Descending FlightAware
12:20PM 33.4410 -112.1030 93° East 165 190 2,300 -1,080 Descending FlightAware
12:21PM 33.4410 -112.0520 90° East 161 185 1,600 -780 Descending FlightAware
12:21PM 33.4410 -112.0310 90° East 164 189 1,300 -360 Descending FlightAware
12:21PM 33.4410 -112.0110 90° East 164 189 1,300  Level FlightAware